ADDS METAR Data INFO
IDs: Format: Raw Decoded Include TAF

Data at: 2101 UTC 19 Jul 2018

KIWD 192056Z AUTO 14009KT 10SM FEW060 27/13 A2985 RMK AO2 SLP104 T02720128 57015
KIWD 191956Z AUTO 16008KT 10SM SCT055 SCT070 27/14 A2986 RMK AO2 SLP110 T02670144
KIWD 191856Z AUTO 16008G14KT 9SM BKN070 26/15 A2988 RMK AO2 SLP114 T02610150
KIWD 191756Z AUTO 17009KT 10SM FEW042 SCT065 26/17 A2989 RMK AO2 SLP120 T02610167 10261 20172 58015
KIWD 191656Z AUTO 18009KT 10SM BKN035 BKN048 24/17 A2991 RMK AO2 SLP127 T02390167
KIWD 191556Z AUTO 18007KT 10SM SCT033 BKN044 BKN055 24/17 A2992 RMK AO2 SLP129 T02440172
KIWD 191456Z AUTO 18007KT 10SM CLR 23/17 A2994 RMK AO2 SLP134 T02330172 56010
KIWD 191356Z AUTO 17007KT 10SM CLR 21/16 A2994 RMK AO2 SLP136 T02110156
KIWD 191256Z AUTO 16008KT 10SM CLR 18/14 A2995 RMK AO2 SLP139 T01830144
KIWD 191156Z AUTO 16008KT 10SM CLR 17/14 A2997 RMK AO2 SLP144 7//// T01720139 10172 20111 58008
KIWD 191056Z AUTO VRB03KT 10SM CLR 15/13 A2999 RMK AO2 SLP151 T01500128
KIWD 190956Z AUTO 19004KT 10SM CLR 14/12 A2999 RMK AO2 SLP151 T01440122
KIWD 190936Z AUTO 15004KT 10SM CLR 13/12 A2998 RMK AO2
KIWD 190927Z AUTO VRB03KT 2 1/2SM BR CLR 11/11 A2998 RMK AO2 VIS 3/4V5
KIWD 190856Z AUTO 00000KT 10SM CLR 12/11 A2999 RMK AO2 SLP154 T01170106 58006
KIWD 190838Z AUTO 00000KT 4SM BR CLR 11/10 A3000 RMK AO2
KIWD 190835Z AUTO 00000KT 1 1/4SM BR CLR 11/11 A3000 RMK AO2
KIWD 190820Z AUTO 00000KT 1SM BR CLR 11/11 A3001 RMK AO2 VIS 1/2V5 RVRNO
KIWD 190813Z AUTO 00000KT 1/2SM FG CLR 11/11 A3001 RMK AO2 RVRNO
KIWD 190805Z AUTO 00000KT 3/4SM BR CLR 11/11 A3000 RMK AO2 RVRNO
KIWD 190801Z AUTO 00000KT 1 1/2SM BR CLR 11/11 A3000 RMK AO2
KIWD 190756Z AUTO 00000KT 10SM CLR 11/11 A3000 RMK AO2 SLP158 T01110106
KIWD 190731Z AUTO 00000KT 3SM BR CLR 12/12 A3001 RMK AO2
KIWD 190729Z AUTO 00000KT 1 1/4SM BR CLR 12/12 A3001 RMK AO2
KIWD 190718Z AUTO 00000KT 3/4SM BR CLR 12/12 A3001 RMK AO2 VIS 1/2V5 RVRNO
KIWD 190714Z AUTO 00000KT 1 3/4SM BR CLR 12/12 A3001 RMK AO2
KIWD 190656Z AUTO 00000KT 4SM BR CLR 12/12 A3001 RMK AO2 SLP160 T01220117
KIWD 190653Z AUTO 00000KT 2 1/2SM BR CLR 12/12 A3001 RMK AO2 VIS 3/4V5
KIWD 190642Z AUTO 00000KT 4SM BR CLR 12/12 A3001 RMK AO2
KIWD 190640Z AUTO 00000KT 1 1/4SM BR CLR 12/12 A3001 RMK AO2 VIS 1/4V5
KIWD 190626Z AUTO 00000KT 3/4SM BR CLR 12/12 A3001 RMK AO2 VIS 1/2V5 RVRNO
KIWD 190622Z AUTO 00000KT 1 3/4SM BR CLR 12/12 A3001 RMK AO2
KIWD 190556Z AUTO 00000KT 5SM BR CLR 13/12 A3001 RMK AO2 SLP162 T01280122 10244 20128 402610072 50000
KIWD 190544Z AUTO 00000KT 4SM BR CLR 13/13 A3001 RMK AO2
KIWD 190534Z AUTO 00000KT 1 1/2SM BR CLR 13/13 A3001 RMK AO2
KIWD 190456Z AUTO 00000KT 8SM CLR 13/13 A3002 RMK AO2 SLP163 T01330133
KIWD 190449Z AUTO 00000KT 3SM BR CLR 14/13 A3002 RMK AO2
KIWD 190445Z AUTO 00000KT 1 1/4SM BR CLR 14/13 A3002 RMK AO2 VIS 1/2V5
KIWD 190420Z AUTO 00000KT 3SM BR CLR 14/14 A3002 RMK AO2
KIWD 190403Z AUTO 00000KT 1 3/4SM BR CLR 14/14 A3002 RMK AO2 VIS 3/4V5
KIWD 190356Z AUTO 00000KT 4SM BR CLR 15/14 A3002 RMK AO2 SLP162 T01500144
KIWD 190347Z AUTO 00000KT 10SM CLR 16/14 A3002 RMK AO2
KIWD 190339Z AUTO 00000KT 1 1/2SM BR CLR 15/15 A3002 RMK AO2
KIWD 190256Z AUTO 00000KT 10SM CLR 17/15 A3001 RMK AO2 SLP161 T01670150 55005
KIWD 190156Z AUTO 00000KT 10SM CLR 20/16 A3001 RMK AO2 SLP158 T02000161
KIWD 190056Z AUTO 00000KT 10SM CLR 23/15 A3001 RMK AO2 SLP159 T02330150
KIWD 182356Z AUTO 27005KT 10SM CLR 24/14 A3003 RMK AO2 SLP165 T02440144 10261 20228 58010
KIWD 182256Z AUTO VRB04KT 10SM CLR 25/13 A3004 RMK AO2 SLP170 T02500133
KIWD 182056Z AUTO 33006KT 10SM CLR 26/13 A3006 RMK AO2 SLP179 T02560133 56014
KIWD 181956Z AUTO VRB06KT 10SM FEW055 25/12 A3007 RMK AO2 SLP182 T02500122
KIWD 181856Z AUTO VRB05KT 10SM BKN050 24/13 A3008 RMK AO2 SLP187 T02440133
KIWD 181756Z AUTO 31006KT 10SM SCT049 24/13 A3010 RMK AO2 SLP193 6//// T02390128 10239 20156 58011
KIWD 181656Z AUTO 24008KT 10SM SCT047 23/12 A3011 RMK AO2 SLP197 T02280117
KIWD 181556Z AUTO 27006KT 10SM CLR 22/13 A3013 RMK AO2 SLP203 T02220128
KIWD 181456Z AUTO 25004KT 10SM CLR 21/12 A3014 RMK AO2 SLP205 6//// T02110122 58008
KIWD 181356Z AUTO 22007KT 10SM CLR 19/12 A3015 RMK AO2 SLP208 T01940117
KIWD 181349Z AUTO 22007KT 1SM HZ CLR 19/12 A3015 RMK AO2 RVRNO
KIWD 181256Z AUTO 00000KT 10SM CLR 18/11 A3016 RMK AO2 SLP211 T01830111 PNO $
KIWD 181156Z AUTO 00000KT 10SM SCT060 16/12 A3016 RMK AO2 SLP212 6//// 7//// T01560122 10156 20072 53004 PNO $
KIWD 181056Z AUTO 21004KT 10SM OVC060 12/10 A3015 RMK AO2 SLP211 T01220100 PNO $
KIWD 180956Z AUTO 19004KT 10SM BKN060 10/09 A3015 RMK AO2 SLP211 T01000089 PNO $